createdAt,value
2023-08-26T00:01:18.146Z,3.83
2023-08-26T00:04:23.525Z,4.38
2023-08-26T00:07:25.519Z,3.92
2023-08-26T00:10:27.429Z,4.07
2023-08-26T00:13:29.366Z,4.07
2023-08-26T00:16:31.449Z,4.43
2023-08-26T00:19:33.634Z,4.22
2023-08-26T00:22:36.705Z,4.60
2023-08-26T00:25:38.769Z,4.17
2023-08-26T00:28:40.723Z,4.20
2023-08-26T00:31:42.852Z,5.03
2023-08-26T00:34:45.057Z,4.78
2023-08-26T00:37:47.729Z,4.75
2023-08-26T00:40:49.801Z,4.70
2023-08-26T00:43:51.730Z,5.47
2023-08-26T00:46:53.730Z,5.32
2023-08-26T00:49:55.921Z,4.85
2023-08-26T00:52:58.038Z,4.70
2023-08-26T00:56:01.073Z,4.70
2023-08-26T00:59:03.111Z,4.80
2023-08-26T01:02:05.713Z,4.22
2023-08-26T01:05:08.740Z,4.85
2023-08-26T01:08:11.112Z,5.00
2023-08-26T01:11:33.936Z,5.33
2023-08-26T01:14:39.060Z,5.07
2023-08-26T01:17:45.092Z,5.20
2023-08-26T01:20:49.674Z,4.90
2023-08-26T01:23:53.525Z,4.82
2023-08-26T01:26:55.506Z,5.00
2023-08-26T01:29:57.718Z,4.27
2023-08-26T01:33:09.100Z,4.65
2023-08-26T01:36:18.922Z,4.65
2023-08-26T01:39:22.173Z,4.53
2023-08-26T01:42:25.681Z,4.90
2023-08-26T01:45:27.767Z,4.77
2023-08-26T01:48:29.771Z,4.95
2023-08-26T01:51:32.644Z,4.82
2023-08-26T01:54:34.681Z,4.78
2023-08-26T01:57:36.805Z,4.77
2023-08-26T02:00:39.180Z,4.60
2023-08-26T02:03:41.232Z,4.38
2023-08-26T02:06:43.423Z,4.60
2023-08-26T02:09:45.545Z,5.25
2023-08-26T02:12:47.516Z,4.50
2023-08-26T02:15:49.529Z,5.00
2023-08-26T02:18:51.638Z,4.60
2023-08-26T02:21:53.853Z,4.15
2023-08-26T02:24:59.165Z,4.80
2023-08-26T02:28:01.136Z,4.20
2023-08-26T02:31:04.199Z,4.20
2023-08-26T02:34:06.286Z,4.00
2023-08-26T02:37:08.219Z,4.47
2023-08-26T02:40:11.696Z,4.72
2023-08-26T02:43:13.625Z,4.17
2023-08-26T02:46:16.818Z,4.40
2023-08-26T02:49:18.924Z,4.93
2023-08-26T02:52:20.962Z,3.83
2023-08-26T02:55:22.930Z,4.50
2023-08-26T02:58:25.190Z,4.40
2023-08-26T03:01:31.777Z,4.33
2023-08-26T03:04:35.109Z,4.00
2023-08-26T03:07:37.366Z,3.60
2023-08-26T03:10:39.968Z,4.97
2023-08-26T03:13:42.281Z,3.93
2023-08-26T03:16:44.446Z,3.90
2023-08-26T03:19:46.440Z,4.30
2023-08-26T03:22:48.455Z,4.45
2023-08-26T03:25:50.491Z,4.03
2023-08-26T03:28:53.498Z,4.10
2023-08-26T03:31:55.900Z,3.87
2023-08-26T03:34:59.765Z,4.10
2023-08-26T03:38:01.827Z,4.30
2023-08-26T03:41:05.594Z,4.25
2023-08-26T03:44:08.949Z,4.50
2023-08-26T03:47:11.373Z,4.80
2023-08-26T03:50:13.683Z,4.30
2023-08-26T03:53:18.981Z,4.53
2023-08-26T03:56:20.966Z,4.85
2023-08-26T03:59:22.925Z,5.63
2023-08-26T04:02:24.943Z,5.70
2023-08-26T04:05:26.988Z,5.30
2023-08-26T04:08:30.551Z,5.68
2023-08-26T04:11:32.539Z,5.90
2023-08-26T04:14:34.688Z,5.37
2023-08-26T04:17:36.932Z,6.10
2023-08-26T04:20:38.956Z,5.93
2023-08-26T04:23:41.116Z,6.22
2023-08-26T04:26:43.269Z,6.38
2023-08-26T04:29:45.266Z,5.97
2023-08-26T04:32:48.621Z,6.17
2023-08-26T04:35:50.702Z,6.53
2023-08-26T04:38:52.925Z,6.35
2023-08-26T04:41:54.903Z,7.43
2023-08-26T04:44:56.919Z,6.90
2023-08-26T04:47:59.345Z,6.77
2023-08-26T04:51:01.681Z,7.00
2023-08-26T04:54:03.917Z,7.13
2023-08-26T04:57:06.182Z,7.40
2023-08-26T05:00:12.414Z,7.00
2023-08-26T05:03:15.027Z,7.27
2023-08-26T05:06:17.165Z,6.72
2023-08-26T05:09:19.269Z,7.03
2023-08-26T05:12:22.693Z,6.90
2023-08-26T05:15:27.901Z,6.77
2023-08-26T05:18:30.736Z,6.67
2023-08-26T05:21:32.939Z,6.97
2023-08-26T05:24:35.303Z,6.70
2023-08-26T05:27:38.390Z,6.80
2023-08-26T05:30:40.778Z,6.47
2023-08-26T05:33:44.258Z,6.60
2023-08-26T05:36:46.541Z,6.28
2023-08-26T05:39:48.626Z,6.30
2023-08-26T05:42:50.623Z,6.43
2023-08-26T05:45:56.670Z,6.40
2023-08-26T05:48:58.907Z,6.50
2023-08-26T05:52:01.044Z,6.53
2023-08-26T05:55:03.111Z,7.22
2023-08-26T05:58:05.318Z,6.03
2023-08-26T06:01:07.326Z,6.43
2023-08-26T06:04:10.590Z,5.80
2023-08-26T06:07:12.645Z,6.28
2023-08-26T06:10:14.727Z,7.10
2023-08-26T06:13:17.633Z,6.50
2023-08-26T06:16:23.041Z,5.90
2023-08-26T06:19:25.208Z,6.13
2023-08-26T06:22:27.249Z,5.88
2023-08-26T06:25:29.502Z,6.80
2023-08-26T06:28:32.102Z,6.72
2023-08-26T06:31:34.385Z,6.03
2023-08-26T06:34:36.618Z,6.23
2023-08-26T06:37:38.631Z,6.32
2023-08-26T06:40:40.581Z,6.65
2023-08-26T06:43:42.701Z,6.53
2023-08-26T06:46:49.113Z,6.13
2023-08-26T06:49:51.196Z,6.50
2023-08-26T06:52:53.474Z,6.88
2023-08-26T06:55:55.645Z,6.28
2023-08-26T06:58:58.826Z,6.85
2023-08-26T07:02:00.962Z,7.10
2023-08-26T07:05:03.321Z,7.00
2023-08-26T07:08:05.738Z,6.68
2023-08-26T07:11:07.744Z,6.43
2023-08-26T07:14:09.914Z,6.53
2023-08-26T07:17:13.273Z,7.70
2023-08-26T07:20:15.336Z,6.73
2023-08-26T07:23:17.363Z,6.10
2023-08-26T07:26:19.864Z,6.53
2023-08-26T07:29:21.899Z,6.60
2023-08-26T07:32:24.002Z,6.17
2023-08-26T07:35:26.094Z,6.23
2023-08-26T07:38:28.153Z,6.50
2023-08-26T07:41:30.238Z,6.60
2023-08-26T07:44:32.261Z,6.20
2023-08-26T07:50:39.329Z,6.60
2023-08-26T07:53:41.286Z,6.95
2023-08-26T07:56:43.245Z,7.05
2023-08-26T07:59:45.287Z,6.78
2023-08-26T08:02:47.491Z,6.73
2023-08-26T08:05:49.651Z,6.67
2023-08-26T08:08:52.320Z,6.95
2023-08-26T08:11:54.326Z,6.55
2023-08-26T08:14:56.371Z,6.88
2023-08-26T08:17:58.394Z,7.43
2023-08-26T08:21:00.357Z,6.67
2023-08-26T08:24:02.402Z,7.07
2023-08-26T08:27:04.780Z,7.60
2023-08-26T08:30:07.786Z,8.00
2023-08-26T08:33:10.091Z,8.40
2023-08-26T08:36:12.232Z,8.03
2023-08-26T08:39:14.328Z,8.02
2023-08-26T08:42:17.596Z,8.30
2023-08-26T08:45:20.578Z,9.00
2023-08-26T08:48:24.514Z,8.03
2023-08-26T08:51:28.919Z,7.80
2023-08-26T08:54:32.216Z,7.68
2023-08-26T08:57:36.596Z,8.10
2023-08-26T09:00:38.767Z,7.53
2023-08-26T09:03:41.559Z,7.50
2023-08-26T09:06:44.040Z,7.07
2023-08-26T09:09:59.726Z,7.03
2023-08-26T09:13:04.616Z,6.90
2023-08-26T09:16:06.773Z,7.10
2023-08-26T09:19:14.362Z,6.50
2023-08-26T09:22:17.994Z,7.32
2023-08-26T09:25:19.946Z,6.00
2023-08-26T09:28:24.832Z,5.78
2023-08-26T09:31:26.989Z,7.50
2023-08-26T09:34:34.119Z,6.70
2023-08-26T09:37:36.407Z,5.78
2023-08-26T09:40:39.882Z,5.70
2023-08-26T09:43:43.669Z,5.78
2023-08-26T09:46:46.120Z,5.63
2023-08-26T09:49:49.461Z,5.30
2023-08-26T09:52:53.423Z,5.88
2023-08-26T09:55:57.880Z,5.60
2023-08-26T09:58:59.861Z,5.50
2023-08-26T10:02:04.794Z,4.40
2023-08-26T10:05:13.696Z,4.90
2023-08-26T10:08:15.780Z,5.03
2023-08-26T10:11:21.677Z,4.80
2023-08-26T10:14:25.761Z,4.47
2023-08-26T10:17:31.984Z,4.53
2023-08-26T10:20:34.809Z,5.40
2023-08-26T10:23:37.663Z,5.00
2023-08-26T10:26:40.154Z,4.85
2023-08-26T10:29:43.527Z,5.30
2023-08-26T10:32:45.893Z,4.80
2023-08-26T10:36:12.403Z,4.90
2023-08-26T10:39:17.486Z,4.65
2023-08-26T10:42:20.922Z,4.97
2023-08-26T10:45:24.713Z,4.50
2023-08-26T10:48:26.877Z,5.00
2023-08-26T10:51:35.971Z,4.53
2023-08-26T10:54:38.057Z,5.10
2023-08-26T10:58:03.194Z,5.05
2023-08-26T11:01:05.508Z,4.90
2023-08-26T11:04:07.604Z,5.20
2023-08-26T11:07:18.586Z,4.87
2023-08-26T11:10:28.617Z,4.97
2023-08-26T11:13:30.692Z,5.82
2023-08-26T11:16:34.160Z,4.80
2023-08-26T11:19:36.888Z,4.47
2023-08-26T11:22:39.656Z,5.13
2023-08-26T11:25:41.601Z,4.97
2023-08-26T11:28:43.599Z,4.88
2023-08-26T11:31:45.796Z,4.88
2023-08-26T11:34:49.064Z,5.43
2023-08-26T11:37:51.105Z,5.30
2023-08-26T11:40:53.137Z,4.78
2023-08-26T11:43:55.227Z,5.55
2023-08-26T11:46:58.453Z,4.95
2023-08-26T11:50:00.669Z,4.53
2023-08-26T11:53:06.983Z,5.37
2023-08-26T11:56:09.247Z,4.60
2023-08-26T11:59:23.337Z,4.88
2023-08-26T12:02:28.373Z,5.05
2023-08-26T12:05:45.249Z,5.07
2023-08-26T12:08:52.932Z,5.10
2023-08-26T12:11:54.931Z,4.53
2023-08-26T12:15:06.925Z,4.47
2023-08-26T12:18:10.592Z,5.10
2023-08-26T12:21:12.616Z,5.43
2023-08-26T12:24:14.599Z,4.93
2023-08-26T12:27:16.626Z,4.95
2023-08-26T12:30:20.642Z,5.40
2023-08-26T12:33:26.972Z,5.20
2023-08-26T12:36:29.670Z,5.30
2023-08-26T12:39:31.741Z,5.10
2023-08-26T12:42:34.178Z,4.95
2023-08-26T12:45:36.701Z,4.95
2023-08-26T12:51:44.340Z,5.50
2023-08-26T12:54:46.410Z,5.93
2023-08-26T12:57:48.407Z,5.07
2023-08-26T13:00:50.500Z,5.10
2023-08-26T13:03:52.494Z,5.20
2023-08-26T13:06:54.639Z,5.37
2023-08-26T13:09:58.379Z,5.00
2023-08-26T13:13:01.980Z,5.22
2023-08-26T13:16:04.258Z,5.38
2023-08-26T13:19:06.210Z,4.90
2023-08-26T13:22:08.574Z,4.93
2023-08-26T13:25:10.652Z,5.00
2023-08-26T13:28:13.001Z,5.35
2023-08-26T13:31:15.454Z,4.82
2023-08-26T13:34:17.550Z,5.43
2023-08-26T13:37:19.698Z,5.50
2023-08-26T13:40:21.869Z,4.93
2023-08-26T13:43:23.968Z,5.30
2023-08-26T13:46:26.059Z,5.47
2023-08-26T13:49:28.189Z,5.30
2023-08-26T13:52:30.427Z,5.30
2023-08-26T13:55:32.456Z,5.37
2023-08-26T13:58:34.431Z,5.05
2023-08-26T14:01:36.442Z,5.22
2023-08-26T14:04:38.440Z,5.03
2023-08-26T14:07:41.561Z,5.20
2023-08-26T14:10:44.064Z,5.20
2023-08-26T14:13:47.624Z,5.00
2023-08-26T14:16:49.753Z,4.70
2023-08-26T14:19:51.929Z,5.32
2023-08-26T14:22:53.936Z,5.00
2023-08-26T14:25:56.095Z,5.53
2023-08-26T14:28:58.109Z,4.93
2023-08-26T14:32:00.171Z,5.05
2023-08-26T14:35:04.439Z,4.90
2023-08-26T14:38:06.594Z,4.57
2023-08-26T14:41:08.603Z,4.90
2023-08-26T14:44:10.608Z,5.22
2023-08-26T14:47:12.608Z,5.18
2023-08-26T14:50:14.925Z,5.00
2023-08-26T14:53:16.964Z,4.60
2023-08-26T14:56:19.040Z,5.10
2023-08-26T14:59:21.063Z,5.13
2023-08-26T15:02:23.106Z,4.85
2023-08-26T15:05:25.187Z,5.13
2023-08-26T15:08:27.789Z,5.00
2023-08-26T15:11:29.753Z,5.33
2023-08-26T15:14:32.182Z,5.13
2023-08-26T15:17:34.340Z,4.85
2023-08-26T15:20:36.387Z,4.93
2023-08-26T15:23:38.470Z,4.57
2023-08-26T15:26:40.568Z,4.17
2023-08-26T15:29:42.652Z,4.22
2023-08-26T15:32:44.762Z,4.63
2023-08-26T15:35:51.815Z,4.72
2023-08-26T15:38:53.914Z,4.13
2023-08-26T15:41:55.973Z,4.97
2023-08-26T15:44:58.110Z,5.07
2023-08-26T15:48:00.432Z,5.28
2023-08-26T15:51:02.953Z,4.57
2023-08-26T15:54:05.036Z,4.80
2023-08-26T15:57:07.039Z,5.53
2023-08-26T16:00:16.922Z,5.07
2023-08-26T16:03:19.359Z,4.63
2023-08-26T16:06:21.688Z,4.60
2023-08-26T16:09:26.868Z,4.57
2023-08-26T16:12:28.887Z,4.97
2023-08-26T16:15:34.670Z,4.75
2023-08-26T16:18:37.179Z,4.93
2023-08-26T16:21:39.668Z,4.90
2023-08-26T16:24:41.892Z,4.50
2023-08-26T16:27:44.492Z,5.10
2023-08-26T16:30:46.608Z,5.10
2023-08-26T16:33:49.917Z,5.30
2023-08-26T16:36:51.938Z,5.00
2023-08-26T16:39:54.538Z,5.30
2023-08-26T16:42:56.771Z,5.47
2023-08-26T16:45:59.362Z,5.90
2023-08-26T16:49:01.470Z,5.88
2023-08-26T16:52:04.019Z,5.40
2023-08-26T16:55:06.610Z,6.37
2023-08-26T16:58:08.937Z,11.43
2023-08-26T17:01:11.072Z,7.85
2023-08-26T17:04:13.145Z,6.10
2023-08-26T17:07:15.248Z,5.45
2023-08-26T17:10:17.377Z,4.70
2023-08-26T17:13:19.384Z,5.47
2023-08-26T17:16:21.389Z,5.75
2023-08-26T17:19:23.513Z,5.53
2023-08-26T17:22:25.510Z,5.57
2023-08-26T17:25:27.630Z,5.07
2023-08-26T17:28:29.615Z,4.97
2023-08-26T17:31:31.633Z,5.72
2023-08-26T17:34:33.766Z,4.85
2023-08-26T17:37:35.773Z,5.10
2023-08-26T17:40:50.798Z,5.10
2023-08-26T17:43:52.920Z,5.80
2023-08-26T17:46:54.929Z,5.15
2023-08-26T17:49:56.891Z,5.80
2023-08-26T17:52:58.994Z,6.05
2023-08-26T17:56:01.297Z,5.67
2023-08-26T17:59:03.633Z,6.57
2023-08-26T18:02:05.690Z,5.05
2023-08-26T18:05:08.337Z,4.72
2023-08-26T18:08:10.680Z,5.25
2023-08-26T18:11:12.909Z,5.33
2023-08-26T18:14:15.045Z,6.00
2023-08-26T18:17:17.240Z,6.20
2023-08-26T18:20:19.410Z,5.63
2023-08-26T18:23:21.491Z,5.80
2023-08-26T18:26:23.474Z,6.30
2023-08-26T18:29:27.134Z,5.23
2023-08-26T18:32:29.243Z,5.43
2023-08-26T18:35:31.768Z,4.53
2023-08-26T18:38:34.305Z,5.03
2023-08-26T18:41:36.328Z,5.20
2023-08-26T18:44:38.613Z,5.43
2023-08-26T18:47:40.762Z,5.43
2023-08-26T18:50:43.181Z,5.35
2023-08-26T18:53:45.257Z,6.47
2023-08-26T18:56:47.329Z,5.33
2023-08-26T18:59:49.425Z,5.83
2023-08-26T19:02:51.511Z,6.30
2023-08-26T19:05:53.612Z,5.68
2023-08-26T19:08:55.897Z,6.25
2023-08-26T19:11:58.091Z,5.80
2023-08-26T19:15:00.202Z,6.33
2023-08-26T19:18:02.594Z,6.18
2023-08-26T19:21:05.825Z,6.20
2023-08-26T19:24:08.185Z,7.32
2023-08-26T19:27:10.783Z,6.00
2023-08-26T19:30:12.957Z,6.60
2023-08-26T19:33:15.562Z,6.18
2023-08-26T19:36:17.715Z,6.05
2023-08-26T19:39:19.758Z,6.18
2023-08-26T19:42:21.939Z,5.50
2023-08-26T19:45:24.981Z,6.87
2023-08-26T19:48:28.112Z,5.90
2023-08-26T19:51:30.329Z,5.82
2023-08-26T19:54:32.316Z,6.80
2023-08-26T19:57:34.490Z,6.77
2023-08-26T20:00:36.635Z,5.87
2023-08-26T20:03:38.809Z,5.32
2023-08-26T20:06:40.917Z,4.60
2023-08-26T20:09:42.911Z,4.80
2023-08-26T20:12:46.127Z,5.10
2023-08-26T20:15:48.164Z,5.00
2023-08-26T20:18:50.169Z,5.70
2023-08-26T20:21:58.078Z,5.13
2023-08-26T20:25:01.384Z,5.80
2023-08-26T20:28:03.396Z,5.27
2023-08-26T20:31:05.655Z,4.73
2023-08-26T20:34:09.089Z,5.22
2023-08-26T20:37:13.912Z,4.85
2023-08-26T20:40:16.145Z,4.80
2023-08-26T20:43:19.693Z,5.33
2023-08-26T20:46:21.715Z,4.57
2023-08-26T20:49:23.869Z,5.53
2023-08-26T20:52:26.836Z,4.55
2023-08-26T20:55:28.898Z,4.53
2023-08-26T20:58:30.877Z,4.80
2023-08-26T21:01:34.586Z,4.70
2023-08-26T21:04:36.729Z,4.40
2023-08-26T21:07:38.917Z,4.53
2023-08-26T21:10:41.008Z,4.88
2023-08-26T21:13:43.056Z,4.80
2023-08-26T21:16:45.067Z,4.93
2023-08-26T21:19:47.097Z,4.68
2023-08-26T21:22:49.511Z,5.18
2023-08-26T21:25:53.107Z,5.43
2023-08-26T21:28:55.144Z,5.03
2023-08-26T21:31:57.281Z,4.40
2023-08-26T21:35:00.529Z,4.40
2023-08-26T21:38:02.805Z,4.68
2023-08-26T21:41:06.098Z,4.57
2023-08-26T21:44:08.284Z,4.47
2023-08-26T21:47:10.390Z,4.20
2023-08-26T21:50:12.444Z,4.40
2023-08-26T21:53:14.479Z,4.93
2023-08-26T21:56:16.505Z,4.97
2023-08-26T21:59:18.445Z,5.20
2023-08-26T22:02:20.683Z,4.50
2023-08-26T22:05:30.360Z,4.63
2023-08-26T22:08:32.409Z,4.63
2023-08-26T22:11:34.530Z,4.45
2023-08-26T22:14:36.688Z,4.70
2023-08-26T22:17:39.002Z,4.27
2023-08-26T22:20:42.018Z,4.68
2023-08-26T22:23:44.031Z,4.70
2023-08-26T22:26:46.098Z,4.63
2023-08-26T22:29:48.176Z,4.20
2023-08-26T22:32:50.244Z,4.60
2023-08-26T22:35:52.225Z,4.75
2023-08-26T22:38:56.397Z,5.10
2023-08-26T22:42:01.569Z,4.82
2023-08-26T22:45:03.911Z,4.47
2023-08-26T22:48:07.377Z,4.43
2023-08-26T22:51:09.358Z,4.57
2023-08-26T22:54:11.298Z,4.20
2023-08-26T22:57:13.271Z,4.60
2023-08-26T23:00:15.423Z,5.13
2023-08-26T23:03:17.416Z,4.97
2023-08-26T23:06:19.422Z,4.45
2023-08-26T23:09:21.421Z,4.50
2023-08-26T23:12:23.369Z,5.20
2023-08-26T23:15:25.421Z,4.53
2023-08-26T23:18:27.768Z,4.97
2023-08-26T23:21:29.974Z,5.07
2023-08-26T23:24:31.967Z,4.70
2023-08-26T23:27:34.101Z,4.78
2023-08-26T23:30:36.138Z,4.33
2023-08-26T23:33:38.183Z,4.97
2023-08-26T23:36:40.158Z,4.90
2023-08-26T23:39:42.336Z,5.03
2023-08-26T23:42:44.393Z,4.57
2023-08-26T23:45:46.383Z,4.70
2023-08-26T23:48:48.469Z,5.07
2023-08-26T23:51:50.455Z,4.97
2023-08-26T23:54:52.583Z,4.78
2023-08-26T23:57:54.626Z,5.30
